Time,TemperatureF,DewpointF,PressureIn,WindDirection,WindDirectionDegrees,WindSpeedMPH,WindSpeedGustMPH,Humidity,HourlyPrecipIn,Conditions,Clouds,dailyrainin,SolarRadiationWatts/m^2,SoftwareType,DateUTC
2013-07-10 00:00:00,69.9,66.8,29.89,WSW,248,0.0,0.0,90,0.00,BKN,OVC,0.10,0.0,WeatherDisplay:10.37,2013-07-10 04:00:00,
2013-07-10 00:01:00,69.9,66.8,29.89,WSW,248,0.0,0.0,90,0.00,BKN,OVC,0.10,0.0,WeatherDisplay:10.37,2013-07-10 04:01:00,
2013-07-10 00:38:00,69.6,66.9,29.89,WSW,248,0.0,1.0,91,0.00,BKN,OVC,0.10,0.0,WeatherDisplay:10.37,2013-07-10 04:38:00,
2013-07-10 00:43:00,69.6,66.9,29.89,WSW,248,0.0,1.0,91,0.00,BKN,OVC,0.10,0.0,WeatherDisplay:10.37,2013-07-10 04:43:00,
2013-07-10 01:14:00,70.0,67.6,29.88,WSW,248,0.0,0.0,92,0.00,BKN,OVC,0.10,0.0,WeatherDisplay:10.37,2013-07-10 05:14:00,
2013-07-10 01:19:00,70.0,67.6,29.88,WSW,248,0.0,0.0,92,0.00,BKN,OVC,0.10,0.0,WeatherDisplay:10.37,2013-07-10 05:19:00,
2013-07-10 01:54:00,70.1,67.7,29.87,WSW,248,0.0,2.0,92,0.00,BKN,OVC,0.10,0.0,WeatherDisplay:10.37,2013-07-10 05:54:00,
2013-07-10 01:55:00,70.1,67.7,29.87,WSW,248,0.0,2.0,92,0.00,BKN,OVC,0.10,0.0,WeatherDisplay:10.37,2013-07-10 05:55:00,
2013-07-10 02:00:00,70.1,67.7,29.87,WSW,248,0.0,2.0,92,0.00,BKN,OVC,0.10,0.0,WeatherDisplay:10.37,2013-07-10 06:00:00,
2013-07-10 02:38:00,71.1,69.0,29.86,WSW,246,1.5,10.0,93,0.00,BKN,OVC,0.10,0.0,WeatherDisplay:10.37,2013-07-10 06:38:00,
2013-07-10 02:43:00,71.1,69.0,29.86,WSW,246,1.5,10.0,93,0.00,BKN,OVC,0.10,0.0,WeatherDisplay:10.37,2013-07-10 06:43:00,
2013-07-10 03:14:00,71.9,69.4,29.84,WSW,250,1.8,8.0,92,0.00,BKN,OVC,0.10,0.0,WeatherDisplay:10.37,2013-07-10 07:14:00,
2013-07-10 03:19:00,71.9,69.4,29.84,WSW,250,1.8,8.0,92,0.00,BKN,OVC,0.10,0.0,WeatherDisplay:10.37,2013-07-10 07:19:00,
2013-07-10 03:53:00,72.6,69.8,29.84,WSW,250,1.6,10.0,91,0.00,BKN,OVC,0.10,0.0,WeatherDisplay:10.37,2013-07-10 07:53:00,
2013-07-10 03:58:00,72.6,69.8,29.84,WSW,250,1.6,10.0,91,0.00,BKN,OVC,0.10,0.0,WeatherDisplay:10.37,2013-07-10 07:58:00,
2013-07-10 04:14:00,72.6,69.8,29.84,WSW,250,1.6,10.0,91,0.00,BKN,OVC,0.10,0.0,WeatherDisplay:10.37,2013-07-10 08:14:00,
2013-07-10 04:34:00,72.9,69.8,29.85,WSW,248,1.7,8.1,90,0.00,SCT,OVC,0.10,0.0,WeatherDisplay:10.37,2013-07-10 08:34:00,
2013-07-10 04:35:00,72.9,69.8,29.85,WSW,248,1.7,8.1,90,0.00,SCT,OVC,0.10,0.0,WeatherDisplay:10.37,2013-07-10 08:35:00,
2013-07-10 04:40:00,72.9,69.8,29.85,WSW,248,1.7,8.1,90,0.00,SCT,OVC,0.10,0.0,WeatherDisplay:10.37,2013-07-10 08:40:00,
2013-07-10 05:14:00,73.2,69.4,29.83,SW,234,1.9,9.0,88,0.00,SCT,OVC,0.10,0.0,WeatherDisplay:10.37,2013-07-10 09:14:00,
2013-07-10 05:19:00,73.2,69.4,29.83,SW,234,1.9,9.0,88,0.00,SCT,OVC,0.10,0.0,WeatherDisplay:10.37,2013-07-10 09:19:00,
2013-07-10 05:40:00,73.4,69.3,29.83,SW,223,1.4,6.0,87,0.00,SCT,OVC,0.10,0.0,WeatherDisplay:10.37,2013-07-10 09:40:00,
2013-07-10 05:45:00,73.4,69.3,29.83,SW,223,1.4,6.0,87,0.00,SCT,OVC,0.10,0.0,WeatherDisplay:10.37,2013-07-10 09:45:00,
2013-07-10 05:50:00,73.5,69.4,29.83,SW,225,2.7,7.0,87,0.00,SCT,OVC,0.10,0.0,WeatherDisplay:10.37,2013-07-10 09:50:00,
2013-07-10 05:55:00,73.5,69.4,29.83,SW,225,2.7,7.0,87,0.00,SCT,OVC,0.10,0.0,WeatherDisplay:10.37,2013-07-10 09:55:00,
2013-07-10 06:00:00,73.6,69.5,29.83,SW,232,2.2,7.0,87,0.00,BKN,OVC,0.10,0.0,WeatherDisplay:10.37,2013-07-10 10:00:00,
2013-07-10 06:05:00,73.6,69.5,29.83,SW,232,2.2,7.0,87,0.00,BKN,OVC,0.10,0.0,WeatherDisplay:10.37,2013-07-10 10:05:00,
2013-07-10 06:08:00,73.6,69.5,29.83,SW,229,1.5,6.0,87,0.00,BKN,OVC,0.10,0.0,WeatherDisplay:10.37,2013-07-10 10:08:00,
2013-07-10 06:10:00,73.6,69.5,29.83,SW,229,1.5,6.0,87,0.00,BKN,OVC,0.10,0.0,WeatherDisplay:10.37,2013-07-10 10:10:00,
2013-07-10 06:15:00,73.6,69.5,29.83,SW,229,1.5,6.0,87,0.00,BKN,OVC,0.10,0.0,WeatherDisplay:10.37,2013-07-10 10:15:00,
2013-07-10 06:19:00,73.4,69.3,29.83,SW,227,2.9,6.0,87,0.00,BKN,OVC,0.10,5.0,WeatherDisplay:10.37,2013-07-10 10:19:00,
2013-07-10 06:20:00,73.4,69.3,29.83,SW,227,2.9,6.0,87,0.00,BKN,OVC,0.10,5.0,WeatherDisplay:10.37,2013-07-10 10:20:00,
2013-07-10 06:25:00,73.4,69.3,29.83,SW,227,2.9,6.0,87,0.00,BKN,OVC,0.10,5.0,WeatherDisplay:10.37,2013-07-10 10:25:00,
2013-07-10 06:40:00,73.4,69.3,29.83,SSW,211,1.9,11.0,87,0.00,BKN,OVC,0.10,7.0,WeatherDisplay:10.37,2013-07-10 10:40:00,
2013-07-10 06:45:00,73.4,69.3,29.83,SSW,211,1.9,11.0,87,0.00,BKN,OVC,0.10,7.0,WeatherDisplay:10.37,2013-07-10 10:45:00,
2013-07-10 07:02:00,73.5,69.4,29.83,SW,214,2.5,8.0,87,0.00,BKN,OVC,0.10,18.0,WeatherDisplay:10.37,2013-07-10 11:02:00,
2013-07-10 07:03:00,73.5,69.4,29.83,SW,214,2.5,8.0,87,0.00,BKN,OVC,0.10,18.0,WeatherDisplay:10.37,2013-07-10 11:03:00,
2013-07-10 07:08:00,73.5,69.4,29.83,SW,214,2.5,8.0,87,0.00,BKN,OVC,0.10,18.0,WeatherDisplay:10.37,2013-07-10 11:08:00,
2013-07-10 07:28:00,73.6,69.5,29.83,SW,223,3.4,11.5,87,0.00,BKN,OVC,0.10,16.0,WeatherDisplay:10.37,2013-07-10 11:28:00,
2013-07-10 07:33:00,73.6,69.5,29.83,SW,223,3.4,11.5,87,0.00,BKN,OVC,0.10,16.0,WeatherDisplay:10.37,2013-07-10 11:33:00,
2013-07-10 07:53:00,73.8,69.3,29.83,SW,221,4.1,11.5,86,0.00,BKN,OVC,0.10,86.0,WeatherDisplay:10.37,2013-07-10 11:53:00,
2013-07-10 07:58:00,73.8,69.3,29.83,SW,221,4.1,11.5,86,0.00,BKN,OVC,0.10,86.0,WeatherDisplay:10.37,2013-07-10 11:58:00,
2013-07-10 08:23:00,74.2,69.7,29.83,SW,221,4.1,9.2,86,0.00,BKN,OVC,0.10,163.0,WeatherDisplay:10.37,2013-07-10 12:23:00,
2013-07-10 08:28:00,74.2,69.7,29.83,SW,221,4.1,9.2,86,0.00,BKN,OVC,0.10,163.0,WeatherDisplay:10.37,2013-07-10 12:28:00,
2013-07-10 08:48:00,75.0,70.5,29.83,SW,234,3.8,9.2,86,0.01,RA,OVC,0.11,44.0,WeatherDisplay:10.37,2013-07-10 12:48:00,
2013-07-10 08:49:00,75.0,70.5,29.83,SW,234,3.8,9.2,86,0.01,RA,OVC,0.11,44.0,WeatherDisplay:10.37,2013-07-10 12:49:00,
2013-07-10 08:54:00,75.0,70.5,29.83,SW,234,3.8,9.2,86,0.01,RA,OVC,0.11,44.0,WeatherDisplay:10.37,2013-07-10 12:54:00,
2013-07-10 09:17:00,74.3,70.5,29.83,WSW,240,3.1,10.0,88,0.01,RA,OVC,0.11,123.0,WeatherDisplay:10.37,2013-07-10 13:17:00,
2013-07-10 09:22:00,74.3,70.5,29.83,WSW,240,3.1,10.0,88,0.01,RA,OVC,0.11,123.0,WeatherDisplay:10.37,2013-07-10 13:22:00,
2013-07-10 09:47:00,74.6,70.5,29.82,SW,214,5.5,11.5,87,0.01,RA,OVC,0.11,248.0,WeatherDisplay:10.37,2013-07-10 13:47:00,
2013-07-10 09:52:00,74.6,70.5,29.82,SW,214,5.5,11.5,87,0.01,RA,OVC,0.11,248.0,WeatherDisplay:10.37,2013-07-10 13:52:00,
2013-07-10 10:02:00,74.6,70.5,29.82,SW,214,5.5,11.5,87,0.01,RA,OVC,0.11,248.0,WeatherDisplay:10.37,2013-07-10 14:02:00,
2013-07-10 10:07:00,75.9,70.4,29.82,WSW,250,5.5,11.5,83,0.01,RA,OVC,0.11,211.0,WeatherDisplay:10.37,2013-07-10 14:07:00,
2013-07-10 10:12:00,75.9,70.4,29.82,WSW,250,5.5,11.5,83,0.01,RA,OVC,0.11,211.0,WeatherDisplay:10.37,2013-07-10 14:12:00,
2013-07-10 10:28:00,76.6,71.0,29.82,SSW,193,2.5,10.4,83,0.01,BKN,OVC,0.11,350.0,WeatherDisplay:10.37,2013-07-10 14:28:00,
2013-07-10 10:33:00,76.6,71.0,29.82,SSW,193,2.5,10.4,83,0.01,BKN,OVC,0.11,350.0,WeatherDisplay:10.37,2013-07-10 14:33:00,
2013-07-10 10:47:00,78.4,71.3,29.82,SW,229,4.8,11.0,79,0.01,BKN,OVC,0.11,371.0,WeatherDisplay:10.37,2013-07-10 14:47:00,
2013-07-10 10:52:00,78.4,71.3,29.82,SW,229,4.8,11.0,79,0.01,BKN,OVC,0.11,371.0,WeatherDisplay:10.37,2013-07-10 14:52:00,
2013-07-10 11:08:00,78.3,71.6,29.82,SW,221,5.7,11.5,80,0.01,BKN,OVC,0.11,408.0,WeatherDisplay:10.37,2013-07-10 15:08:00,
2013-07-10 11:09:00,78.3,71.6,29.82,SW,221,5.7,11.5,80,0.01,BKN,OVC,0.11,408.0,WeatherDisplay:10.37,2013-07-10 15:09:00,
2013-07-10 11:14:00,78.3,71.6,29.82,SW,221,5.7,11.5,80,0.01,BKN,OVC,0.11,408.0,WeatherDisplay:10.37,2013-07-10 15:14:00,
2013-07-10 11:41:00,78.9,71.5,29.81,WSW,242,6.6,14.0,78,0.01,BKN,OVC,0.11,234.0,WeatherDisplay:10.37,2013-07-10 15:41:00,
2013-07-10 11:46:00,78.9,71.5,29.81,WSW,242,6.6,14.0,78,0.01,BKN,OVC,0.11,234.0,WeatherDisplay:10.37,2013-07-10 15:46:00,
2013-07-10 12:00:00,78.8,71.7,29.80,West,259,3.7,11.5,79,0.01,BKN,OVC,0.11,156.0,WeatherDisplay:10.37,2013-07-10 16:00:00,
2013-07-10 12:01:00,78.8,71.7,29.80,West,259,3.7,11.5,79,0.01,BKN,OVC,0.11,156.0,WeatherDisplay:10.37,2013-07-10 16:01:00,
2013-07-10 12:06:00,78.8,71.7,29.80,West,259,3.7,11.5,79,0.01,BKN,OVC,0.11,156.0,WeatherDisplay:10.37,2013-07-10 16:06:00,
2013-07-10 12:30:00,78.3,72.0,29.80,WSW,249,3.2,12.0,81,0.01,BKN,OVC,0.11,116.0,WeatherDisplay:10.37,2013-07-10 16:30:00,
2013-07-10 12:35:00,78.3,72.0,29.80,WSW,249,3.2,12.0,81,0.01,BKN,OVC,0.11,116.0,WeatherDisplay:10.37,2013-07-10 16:35:00,
2013-07-10 12:52:00,78.5,72.5,29.79,WSW,254,3.8,19.6,82,0.01,BKN,OVC,0.11,283.0,WeatherDisplay:10.37,2013-07-10 16:52:00,
2013-07-10 12:57:00,78.5,72.5,29.79,WSW,254,3.8,19.6,82,0.01,BKN,OVC,0.11,283.0,WeatherDisplay:10.37,2013-07-10 16:57:00,
2013-07-10 13:26:00,78.5,72.5,29.79,WSW,254,3.8,19.6,82,0.01,BKN,OVC,0.11,283.0,WeatherDisplay:10.37,2013-07-10 17:26:00,
2013-07-10 13:28:00,79.6,73.3,29.78,WSW,252,6.9,18.0,81,0.01,BKN,OVC,0.11,392.0,WeatherDisplay:10.37,2013-07-10 17:28:00,
2013-07-10 13:31:00,79.6,73.3,29.78,WSW,252,6.9,18.0,81,0.01,BKN,OVC,0.11,392.0,WeatherDisplay:10.37,2013-07-10 17:31:00,
2013-07-10 13:36:00,79.6,73.3,29.78,WSW,252,6.9,18.0,81,0.01,BKN,OVC,0.11,392.0,WeatherDisplay:10.37,2013-07-10 17:36:00,
2013-07-10 13:50:00,80.8,74.0,29.78,WNW,292,9.5,23.0,80,0.01,BKN,OVC,0.11,390.0,WeatherDisplay:10.37,2013-07-10 17:50:00,
2013-07-10 13:51:00,80.8,74.0,29.78,WNW,292,9.5,23.0,80,0.01,BKN,OVC,0.11,390.0,WeatherDisplay:10.37,2013-07-10 17:51:00,
2013-07-10 13:56:00,80.8,74.0,29.78,WNW,292,9.5,23.0,80,0.01,BKN,OVC,0.11,390.0,WeatherDisplay:10.37,2013-07-10 17:56:00,
2013-07-10 14:15:00,82.1,74.6,29.78,WNW,286,9.1,20.0,78,0.01,BKN,OVC,0.11,882.0,WeatherDisplay:10.37,2013-07-10 18:15:00,
2013-07-10 14:20:00,82.1,74.6,29.78,WNW,286,9.1,20.0,78,0.01,BKN,OVC,0.11,882.0,WeatherDisplay:10.37,2013-07-10 18:20:00,
2013-07-10 14:38:00,82.0,74.5,29.77,West,265,11.8,18.4,78,0.00,BKN,OVC,0.11,403.0,WeatherDisplay:10.37,2013-07-10 18:38:00,
2013-07-10 14:44:00,82.0,74.5,29.77,West,265,11.8,18.4,78,0.00,BKN,OVC,0.11,403.0,WeatherDisplay:10.37,2013-07-10 18:44:00,
2013-07-10 15:03:00,81.9,74.7,29.77,West,281,10.8,22.0,79,0.00,BKN,OVC,0.11,566.0,WeatherDisplay:10.37,2013-07-10 19:03:00,
2013-07-10 15:04:00,81.9,74.7,29.77,West,281,10.8,22.0,79,0.00,BKN,OVC,0.11,566.0,WeatherDisplay:10.37,2013-07-10 19:04:00,
2013-07-10 15:09:00,81.9,74.7,29.77,West,281,10.8,22.0,79,0.00,BKN,OVC,0.11,566.0,WeatherDisplay:10.37,2013-07-10 19:09:00,
2013-07-10 15:33:00,81.8,74.6,29.75,WNW,292,8.2,29.0,79,0.00,BKN,OVC,0.11,772.0,WeatherDisplay:10.37,2013-07-10 19:33:00,
2013-07-10 15:38:00,81.8,74.6,29.75,WNW,292,8.2,29.0,79,0.00,BKN,OVC,0.11,772.0,WeatherDisplay:10.37,2013-07-10 19:38:00,
2013-07-10 16:01:00,82.2,74.7,29.74,West,259,7.3,20.7,78,0.00,BKN,OVC,0.11,441.0,WeatherDisplay:10.37,2013-07-10 20:01:00,
2013-07-10 16:06:00,82.2,74.7,29.74,West,259,7.3,20.7,78,0.00,BKN,OVC,0.11,441.0,WeatherDisplay:10.37,2013-07-10 20:06:00,
2013-07-10 16:24:00,81.4,74.6,29.74,WSW,252,6.7,15.0,80,0.00,BKN,OVC,0.11,536.0,WeatherDisplay:10.37,2013-07-10 20:24:00,
2013-07-10 16:29:00,81.4,74.6,29.74,WSW,252,6.7,15.0,80,0.00,BKN,OVC,0.11,536.0,WeatherDisplay:10.37,2013-07-10 20:29:00,
2013-07-10 16:46:00,81.6,74.8,29.75,WSW,244,5.5,15.0,80,0.00,BKN,OVC,0.11,369.0,WeatherDisplay:10.37,2013-07-10 20:46:00,
2013-07-10 16:47:00,81.6,74.8,29.75,WSW,244,5.5,15.0,80,0.00,BKN,OVC,0.11,369.0,WeatherDisplay:10.37,2013-07-10 20:47:00,
2013-07-10 16:52:00,81.6,74.8,29.75,WSW,244,5.5,15.0,80,0.00,BKN,OVC,0.11,369.0,WeatherDisplay:10.37,2013-07-10 20:52:00,
2013-07-10 17:12:00,81.1,74.0,29.75,West,263,6.3,17.0,79,0.00,BKN,OVC,0.11,251.0,WeatherDisplay:10.37,2013-07-10 21:12:00,
2013-07-10 17:17:00,81.1,74.0,29.75,West,263,6.3,17.0,79,0.00,BKN,OVC,0.11,251.0,WeatherDisplay:10.37,2013-07-10 21:17:00,
2013-07-10 17:38:00,80.0,73.3,29.75,WSW,248,5.7,15.0,80,0.00,BKN,OVC,0.11,90.0,WeatherDisplay:10.37,2013-07-10 21:38:00,
2013-07-10 17:43:00,80.0,73.3,29.75,WSW,248,5.7,15.0,80,0.00,BKN,OVC,0.11,90.0,WeatherDisplay:10.37,2013-07-10 21:43:00,
2013-07-10 18:03:00,79.2,72.9,29.76,WSW,244,2.8,13.8,81,0.00,BKN,OVC,0.11,63.0,WeatherDisplay:10.37,2013-07-10 22:03:00,
2013-07-10 18:08:00,79.2,72.9,29.76,WSW,244,2.8,13.8,81,0.00,BKN,OVC,0.11,63.0,WeatherDisplay:10.37,2013-07-10 22:08:00,
2013-07-10 18:33:00,78.2,73.0,29.75,SW,229,3.6,12.0,84,0.00,BKN,OVC,0.11,37.0,WeatherDisplay:10.37,2013-07-10 22:33:00,
2013-07-10 18:38:00,78.2,73.0,29.75,SW,229,3.6,12.0,84,0.00,BKN,OVC,0.11,37.0,WeatherDisplay:10.37,2013-07-10 22:38:00,
2013-07-10 18:54:00,77.6,72.4,29.75,SSW,201,5.0,16.0,84,0.00,BKN,OVC,0.11,21.0,WeatherDisplay:10.37,2013-07-10 22:54:00,
2013-07-10 18:55:00,77.6,72.4,29.75,SSW,201,5.0,16.0,84,0.00,BKN,OVC,0.11,21.0,WeatherDisplay:10.37,2013-07-10 22:55:00,
2013-07-10 19:00:00,77.6,72.4,29.75,SSW,201,5.0,16.0,84,0.00,BKN,OVC,0.11,21.0,WeatherDisplay:10.37,2013-07-10 23:00:00,
2013-07-10 19:20:00,76.0,66.3,29.76,SSW,211,8.8,26.5,72,0.00,BKN,OVC,0.11,28.0,WeatherDisplay:10.37,2013-07-10 23:20:00,
2013-07-10 19:25:00,76.0,66.3,29.76,SSW,211,8.8,26.5,72,0.00,BKN,OVC,0.11,28.0,WeatherDisplay:10.37,2013-07-10 23:25:00,
2013-07-10 19:42:00,74.1,66.0,29.77,WSW,248,4.8,26.5,76,0.00,BKN,OVC,0.11,12.0,WeatherDisplay:10.37,2013-07-10 23:42:00,
2013-07-10 19:43:00,74.1,66.0,29.77,WSW,248,4.8,26.5,76,0.00,BKN,OVC,0.11,12.0,WeatherDisplay:10.37,2013-07-10 23:43:00,
2013-07-10 19:48:00,74.1,66.0,29.77,WSW,248,4.8,26.5,76,0.00,BKN,OVC,0.11,12.0,WeatherDisplay:10.37,2013-07-10 23:48:00,
2013-07-10 20:15:00,73.0,65.7,29.77,SW,223,5.2,18.0,78,0.00,BKN,OVC,0.11,11.0,WeatherDisplay:10.37,2013-07-11 00:15:00,
2013-07-10 20:20:00,73.0,65.7,29.77,SW,223,5.2,18.0,78,0.00,BKN,OVC,0.11,11.0,WeatherDisplay:10.37,2013-07-11 00:20:00,
2013-07-10 20:38:00,72.6,65.3,29.79,WSW,245,3.6,16.1,78,0.00,BKN,OVC,0.11,16.0,WeatherDisplay:10.37,2013-07-11 00:38:00,
2013-07-10 20:39:00,72.6,65.3,29.79,WSW,245,3.6,16.1,78,0.00,BKN,OVC,0.11,16.0,WeatherDisplay:10.37,2013-07-11 00:39:00,
2013-07-10 20:44:00,72.6,65.3,29.79,WSW,245,3.6,16.1,78,0.00,BKN,OVC,0.11,16.0,WeatherDisplay:10.37,2013-07-11 00:44:00,
2013-07-10 20:49:00,72.6,65.3,29.79,WSW,245,3.6,16.1,78,0.00,BKN,OVC,0.11,16.0,WeatherDisplay:10.37,2013-07-11 00:49:00,
2013-07-10 21:03:00,72.5,64.9,29.80,WSW,238,4.6,13.0,77,0.00,BKN,OVC,0.11,12.0,WeatherDisplay:10.37,2013-07-11 01:03:00,
2013-07-10 21:08:00,72.5,64.9,29.80,WSW,238,4.6,13.0,77,0.00,BKN,OVC,0.11,12.0,WeatherDisplay:10.37,2013-07-11 01:08:00,
2013-07-10 21:21:00,72.5,64.9,29.80,WSW,238,4.6,13.0,77,0.00,BKN,OVC,0.11,12.0,WeatherDisplay:10.37,2013-07-11 01:21:00,
2013-07-10 21:36:00,72.4,63.6,29.82,WSW,251,4.9,13.0,74,0.00,BKN,OVC,0.11,0.0,WeatherDisplay:10.37,2013-07-11 01:36:00,
2013-07-10 21:37:00,72.4,63.6,29.82,WSW,251,4.9,13.0,74,0.00,BKN,OVC,0.11,0.0,WeatherDisplay:10.37,2013-07-11 01:37:00,
2013-07-10 21:42:00,72.4,63.6,29.82,WSW,251,4.9,13.0,74,0.00,BKN,OVC,0.11,0.0,WeatherDisplay:10.37,2013-07-11 01:42:00,
2013-07-10 22:08:00,73.3,63.7,29.83,WSW,240,5.1,15.0,72,0.00,BKN,OVC,0.11,0.0,WeatherDisplay:10.37,2013-07-11 02:08:00,
2013-07-10 22:09:00,73.3,63.7,29.83,WSW,240,5.1,15.0,72,0.00,BKN,OVC,0.11,0.0,WeatherDisplay:10.37,2013-07-11 02:09:00,
2013-07-10 22:14:00,73.3,63.7,29.83,WSW,240,5.1,15.0,72,0.00,BKN,OVC,0.11,0.0,WeatherDisplay:10.37,2013-07-11 02:14:00,
2013-07-10 22:48:00,72.7,64.3,29.84,WSW,253,7.9,19.0,75,0.00,BKN,OVC,0.11,0.0,WeatherDisplay:10.37,2013-07-11 02:48:00,
2013-07-10 22:49:00,72.7,64.3,29.84,WSW,253,7.9,19.0,75,0.00,BKN,OVC,0.11,0.0,WeatherDisplay:10.37,2013-07-11 02:49:00,
2013-07-10 22:54:00,72.7,64.3,29.84,WSW,253,7.9,19.0,75,0.00,BKN,OVC,0.11,0.0,WeatherDisplay:10.37,2013-07-11 02:54:00,
2013-07-10 23:01:00,72.7,64.3,29.84,WSW,253,7.9,19.0,75,0.00,BKN,OVC,0.11,0.0,WeatherDisplay:10.37,2013-07-11 03:01:00,
2013-07-10 23:24:00,72.2,65.3,29.83,WSW,254,4.7,17.0,79,0.00,BKN,OVC,0.11,0.0,WeatherDisplay:10.37,2013-07-11 03:24:00,
2013-07-10 23:29:00,72.2,65.3,29.83,WSW,254,4.7,17.0,79,0.00,BKN,OVC,0.11,0.0,WeatherDisplay:10.37,2013-07-11 03:29:00,
2013-07-10 23:37:00,72.2,65.3,29.83,WSW,254,4.7,17.0,79,0.00,BKN,OVC,0.11,0.0,WeatherDisplay:10.37,2013-07-11 03:37:00,